Baro de Viver, Spain

12:44 PM CET on December 05, 2016 (GMT +0100)
Llefia | | Change Station

Elev 174 ft 41.44 °N, 2.22 °E | Updated 2 seconds ago

Mostly Cloudy
Mostly Cloudy
61.9 °F
Feels Like 61.9 °F
N
23.0
Wind Variable Wind from ENE
Gusts 23.0 mph

Today
High -- | Low -- °F
--% Chance of Precip.
Yesterday
High -- | Low -- °F
Precip. -- in
Pressure 30.12 in
Visibility 6.2 miles
Clouds Scattered Clouds 2000 ft
Mostly Cloudy 7000 ft
Dew Point 58 °F
Humidity 88%
Rainfall 0.00 in
Snow Depth Not available.
8:02 AM 5:21 PM
Waxing Crescent, 31% visible
METAR LELL 051130Z 04008KT 340V100 9999 SCT020 BKN070 16/13 Q1020
Pressure 30.12 in
Visibility 6.2 miles
Clouds Scattered Clouds 2000 ft
Mostly Cloudy 7000 ft
Dew Point 58 °F
Humidity 88%
Rainfall 0.00 in
Snow Depth Not available.
8:02 AM 5:21 PM
Waxing Crescent, 31% visible
METAR LELL 051130Z 04008KT 340V100 9999 SCT020 BKN070 16/13 Q1020

10-Day Weather Forecast

×

Almanac

Astronomy

Dec. 05, 2016 Rise Set
Actual Time
Civil Twilight
Nautical Twilight
Astronomical Twilight
Moon
Length of Visible Light
Length of Day
Tomorrow will be .
, % of the Moon is Illuminated

Today's Extremes

Country Highs Country Lows

Community

WunderPhotos

Upload Photos

1,955,777 photos uploaded!

WunderBlog® & News

Nearby

Air Quality

  Air Quality AQ Index Pollutant
Not available.

Snow Depth

Station Depth Elevation

Earthquake Activity

City Distance Mag. Time & Date
Minimum magnitude displayed is 2.5.

Coastal Water Temperatures

Place Temperature

Stations

Nearby Weather Stations

Station Location Temp. Windchill Dew Point Humidity Wind Precip. Elev Updated Type